Home > Products > Valid Products > TAF

000
FTUS44 KTSA 301900 AAA
TAFXNA
TAF AMD
KXNA 301926Z 3019/3118 26014G22KT P6SM FEW110
     FM302100 29012KT P6SM SKC
     FM310000 33006KT P6SM SKC
     FM311500 36010G18KT P6SM SKC=



000
FTUS44 KTSA 301900 AAA
TAFFSM
TAF AMD
KFSM 301922Z 3019/3118 25014KT P6SM SCT110
     FM302100 29009G17KT P6SM FEW110
     FM310000 31007KT P6SM SKC
     FM311500 34010G17KT P6SM SKC=



000
FTUS44 KTSA 301700
TAFTUL
TAF
KTUL 301720Z 3018/3118 25016G22KT P6SM FEW100 BKN250
     FM302000 33011KT P6SM SKC
     FM310000 34007KT P6SM SKC
     FM311500 01010G20KT P6SM SKC=



000
FTUS44 KTSA 301700
TAFFYV
TAF
KFYV 301720Z 3018/3118 22011G17KT P6SM OVC110
     FM302100 29010KT P6SM SCT250
     FM310000 33006KT P6SM SKC
     FM311500 36010G18KT P6SM SKC=



000
FTUS44 KTSA 301700
TAFXNA
TAF
KXNA 301720Z 3018/3118 21012KT P6SM OVC110
     FM302100 29010KT P6SM SCT250
     FM310000 33006KT P6SM SKC
     FM311500 36010G18KT P6SM SKC=



000
FTUS44 KTSA 301700
TAFRVS
TAF
KRVS 301720Z 3018/3118 24008G19KT P6SM FEW100 BKN250
     FM302000 34009KT P6SM SKC
     FM310000 36004KT P6SM SKC
     FM311500 01010G17KT P6SM SKC=



000
FTUS44 KTSA 301700
TAFMLC
TAF
KMLC 301720Z 3018/3118 22009G18KT P6SM FEW110 SCT250
     FM302100 32010KT P6SM SKC
     FM310000 35006KT P6SM SKC
     FM311500 02010G17KT P6SM SKC=



000
FTUS44 KTSA 301700
TAFFSM
TAF
KFSM 301720Z 3018/3118 00000KT P6SM SKC
     FM302100 29009G17KT P6SM SKC
     FM310000 31007KT P6SM SKC
     FM311500 34010G17KT P6SM SKC=



000
FTUS44 KTSA 301600 AAA
TAFRVS
TAF AMD
KRVS 301646Z 3017/3112 24008G19KT P6SM SCT100 BKN250
     FM301900 34009KT P6SM SKC
     FM310000 36004KT P6SM SKC=



000
FTUS44 KTSA 301600 AAA
TAFTUL
TAF AMD
KTUL 301646Z 3017/3112 25016G22KT P6SM FEW100 BKN250
     FM301900 33011KT P6SM SKC
     FM310000 34007KT P6SM SKC=



000
FTUS44 KTSA 301600 AAA
TAFRVS
TAF AMD
KRVS 301646Z 3017/3112 24008G19KT P6SM SCT100 BKN250
     FM301900 34009KT P6SM SKC
     FM310000 36004KT P6SM SKC=



000
FTUS44 KTSA 301600 AAA
TAFTUL
TAF AMD
KTUL 301646Z 3017/3112 25016G22KT P6SM FEW100 BKN250
     FM301900 33011KT P6SM SKC
     FM310000 34007KT P6SM SKC=



000
FTUS44 KTSA 301100
TAFFYV
TAF
KFYV 301120Z 3012/3112 00000KT P6SM FEW250
     FM301500 22011KT P6SM SKC
     FM302200 29010KT P6SM SKC
     FM310000 33006KT P6SM SKC=



000
FTUS44 KTSA 301100
TAFTUL
TAF
KTUL 301120Z 3012/3112 17005KT P6SM FEW250
     FM301500 22010KT P6SM SKC
     FM301900 33011KT P6SM SKC
     FM310000 34007KT P6SM SKC=



000
FTUS44 KTSA 301100
TAFRVS
TAF
KRVS 301120Z 3012/3112 00000KT P6SM FEW250
     FM301500 22009KT P6SM SKC
     FM301900 34009KT P6SM SKC
     FM310000 36004KT P6SM SKC=



000
FTUS44 KTSA 301100
TAFMLC
TAF
KMLC 301120Z 3012/3112 00000KT P6SM SKC
     FM301500 21010KT P6SM SKC
     FM302100 32010KT P6SM SKC
     FM310000 35006KT P6SM SKC=



000
FTUS44 KTSA 301100
TAFFSM
TAF
KFSM 301120Z 3012/3112 00000KT P6SM SKC
     FM301600 24009KT P6SM SKC
     FM302200 29010KT P6SM SKC
     FM310000 31007KT P6SM SKC=



000
FTUS44 KTSA 301100
TAFXNA
TAF
KXNA 301120Z 3012/3112 00000KT P6SM FEW250
     FM301500 22011KT P6SM SKC
     FM302200 29010KT P6SM SKC
     FM310000 34007KT P6SM SKC=



000
FTUS44 KTSA 300500
TAFTUL
TAF
KTUL 300520Z 3006/3106 17005KT P6SM SKC
     FM301500 22010KT P6SM SKC
     FM301900 33011KT P6SM SKC
     FM310000 34007KT P6SM SKC=



000
FTUS44 KTSA 300500
TAFFYV
TAF
KFYV 300520Z 3006/3106 00000KT P6SM SKC
     FM301500 22011KT P6SM SKC
     FM302200 29010KT P6SM SKC
     FM310000 33006KT P6SM SKC=



000
FTUS44 KTSA 300500
TAFXNA
TAF
KXNA 300520Z 3006/3106 00000KT P6SM SKC
     FM301500 22011KT P6SM SKC
     FM302200 29010KT P6SM SKC
     FM310000 34007KT P6SM SKC=



000
FTUS44 KTSA 300500
TAFFSM
TAF
KFSM 300520Z 3006/3106 00000KT P6SM SKC
     FM301600 24009KT P6SM SKC
     FM302200 29010KT P6SM SKC
     FM310000 31007KT P6SM SKC=



000
FTUS44 KTSA 300500
TAFRVS
TAF
KRVS 300520Z 3006/3106 00000KT P6SM SKC
     FM301500 22009KT P6SM SKC
     FM301900 34009KT P6SM SKC
     FM310000 36004KT P6SM SKC=



000
FTUS44 KTSA 300500
TAFMLC
TAF
KMLC 300520Z 3006/3106 00000KT P6SM SKC
     FM301500 21010KT P6SM SKC
     FM302100 32010KT P6SM SKC
     FM310000 35006KT P6SM SKC=



000
FTUS44 KTSA 292300
TAFXNA
TAF
KXNA 292328Z 3000/3024 00000KT P6SM SKC
     FM301500 22012KT P6SM SKC
     FM302100 29012KT P6SM SKC=



000
FTUS44 KTSA 292300
TAFFYV
TAF
KFYV 292328Z 3000/3024 00000KT P6SM SKC
     FM301500 22012KT P6SM SKC
     FM302100 29012KT P6SM SKC=



000
FTUS44 KTSA 292300
TAFRVS
TAF
KRVS 292328Z 3000/3024 00000KT P6SM SKC
     FM301500 24008KT P6SM SKC
     FM301800 33010KT P6SM SKC=



000
FTUS44 KTSA 292300
TAFTUL
TAF
KTUL 292328Z 3000/3024 18005KT P6SM SKC
     FM301500 24009KT P6SM SKC
     FM301900 33012KT P6SM SKC=



000
FTUS44 KTSA 292300
TAFFSM
TAF
KFSM 292328Z 3000/3024 00000KT P6SM SKC
     FM301600 24010KT P6SM SKC
     FM302100 28011KT P6SM SKC=



000
FTUS44 KTSA 292300
TAFMLC
TAF
KMLC 292328Z 3000/3024 00000KT P6SM SKC
     FM301500 22011KT P6SM SKC
     FM302000 31011KT P6SM SKC=



000
FTUS44 KTSA 291700
TAFFSM
TAF
KFSM 291720Z 2918/3018 VRB04KT P6SM SKC=



000
FTUS44 KTSA 291700
TAFFYV
TAF
KFYV 291720Z 2918/3018 00000KT P6SM SKC=



000
FTUS44 KTSA 291700
TAFXNA
TAF
KXNA 291720Z 2918/3018 33004KT P6SM SKC=



000
FTUS44 KTSA 291700
TAFRVS
TAF
KRVS 291720Z 2918/3018 VRB05KT P6SM SKC
     FM301500 30007KT P6SM BKN250=



000
FTUS44 KTSA 291700
TAFTUL
TAF
KTUL 291720Z 2918/3018 25004KT P6SM SKC
     FM301500 30008KT P6SM BKN250=



000
FTUS44 KTSA 291700
TAFMLC
TAF
KMLC 291720Z 2918/3018 VRB04KT P6SM SKC=



000
FTUS44 KTSA 291100
TAFMLC
TAF
KMLC 291120Z 2912/3012 VRB04KT P6SM SKC=



000
FTUS44 KTSA 291100
TAFFYV
TAF
KFYV 291120Z 2912/3012 VRB03KT P6SM SKC=



000
FTUS44 KTSA 291100
TAFRVS
TAF
KRVS 291120Z 2912/3012 VRB03KT P6SM SKC=



000
FTUS44 KTSA 291100
TAFFSM
TAF
KFSM 291120Z 2912/3012 VRB02KT P6SM SKC=



000
FTUS44 KTSA 291100
TAFTUL
TAF
KTUL 291120Z 2912/3012 VRB04KT P6SM SKC=



000
FTUS44 KTSA 291100
TAFXNA
TAF
KXNA 291120Z 2912/3012 VRB03KT P6SM SKC=



000
FTUS44 KTSA 290500
TAFRVS
TAF
KRVS 290520Z 2906/3006 00000KT P6SM FEW250=



000
FTUS44 KTSA 290500
TAFXNA
TAF
KXNA 290520Z 2906/3006 00000KT P6SM FEW250=



000
FTUS44 KTSA 290500
TAFFYV
TAF
KFYV 290520Z 2906/3006 00000KT P6SM FEW250=



000
FTUS44 KTSA 290500
TAFFSM
TAF
KFSM 290520Z 2906/3006 VRB03KT P6SM SKC=



000
FTUS44 KTSA 290500
TAFTUL
TAF
KTUL 290520Z 2906/3006 VRB04KT P6SM FEW250=



000
FTUS44 KTSA 290500
TAFMLC
TAF
KMLC 290520Z 2906/3006 VRB05KT P6SM SKC=



000
FTUS44 KTSA 282300
TAFXNA
TAF
KXNA 282320Z 2900/2924 VRB03KT P6SM SCT250=



000
FTUS44 KTSA 282300
TAFFYV
TAF
KFYV 282320Z 2900/2924 00000KT P6SM SCT250=



000
FTUS44 KTSA 282300
TAFFSM
TAF
KFSM 282320Z 2900/2924 VRB03KT P6SM SCT250=



000
FTUS44 KTSA 282300
TAFMLC
TAF
KMLC 282320Z 2900/2924 02006KT P6SM SCT250=



000
FTUS44 KTSA 282300
TAFTUL
TAF
KTUL 282320Z 2900/2924 05005KT P6SM SCT250=



000
FTUS44 KTSA 282300
TAFRVS
TAF
KRVS 282320Z 2900/2924 00000KT P6SM SCT250=



000
FTUS44 KTSA 282200 AAA
TAFMLC
TAF AMD
KMLC 282211Z 2822/2918 36012KT P6SM BKN250
     FM290000 02004KT P6SM SCT250=



000
FTUS44 KTSA 281700 CCA
TAFFSM
TAF COR
KFSM 281727Z 2818/2918 06007KT P6SM BKN040
     FM282000 06008KT P6SM SCT050
     FM290200 08003KT P6SM SKC=



000
FTUS44 KTSA 281700
TAFRVS
TAF
KRVS 281720Z 2818/2918 04007KT P6SM SKC
     FM290000 02005KT P6SM SCT250=



000
FTUS44 KTSA 281700
TAFFSM
TAF
KFSM 281720Z 2818/2918 06007KT P6SM BKN025
     FM282000 06008KT P6SM SCT035
     FM290200 08003KT P6SM SKC=



000
FTUS44 KTSA 281700
TAFXNA
TAF
KXNA 281720Z 2818/2918 09009KT P6SM SCT250
     FM290200 VRB03KT P6SM SKC=



000
FTUS44 KTSA 281700
TAFFYV
TAF
KFYV 281720Z 2818/2918 06006KT P6SM SCT250
     FM290200 VRB03KT P6SM SKC=



000
FTUS44 KTSA 281700
TAFTUL
TAF
KTUL 281720Z 2818/2918 01006KT P6SM BKN250
     FM290000 02005KT P6SM SCT250=



000
FTUS44 KTSA 281700
TAFMLC
TAF
KMLC 281720Z 2818/2918 04012KT P6SM SKC
     FM290000 02004KT P6SM SCT250=



000
FTUS44 KTSA 281500 AAA
TAFFSM
TAF AMD
KFSM 281513Z 2815/2912 06005KT P6SM OVC029
     FM281800 33006KT P6SM SCT250=



000
FTUS44 KTSA 281100
TAFFSM
TAF
KFSM 281120Z 2812/2912 31006KT P6SM OVC035
     FM281800 33006KT P6SM SCT250=



000
FTUS44 KTSA 281100
TAFFYV
TAF
KFYV 281120Z 2812/2912 01006KT P6SM SCT250
      TEMPO 2812/2814 BKN035
     FM281500 02006KT P6SM SCT250=



000
FTUS44 KTSA 281100
TAFXNA
TAF
KXNA 281120Z 2812/2912 35010KT P6SM SCT250
      TEMPO 2812/2814 BKN035
     FM281500 02006KT P6SM SCT250=



000
FTUS44 KTSA 281100
TAFTUL
TAF
KTUL 281120Z 2812/2912 01008KT P6SM SCT250
     FM290000 02005KT P6SM SCT250=



000
FTUS44 KTSA 281100
TAFMLC
TAF
KMLC 281120Z 2812/2912 02012KT P6SM SCT250
     FM290000 02004KT P6SM SCT250=



000
FTUS44 KTSA 281100
TAFRVS
TAF
KRVS 281120Z 2812/2912 01007KT P6SM SCT250
     FM290000 02005KT P6SM SCT250=



000
FTUS44 KTSA 280800 AAA
TAFFSM
TAF AMD
KFSM 280814Z 2808/2906 35006KT P6SM OVC060
      TEMPO 2808/2812 4SM TSRA BKN035CB
     FM281800 03006KT P6SM SCT250=



000
FTUS44 KTSA 280800 AAA
TAFFYV
TAF AMD
KFYV 280813Z 2808/2906 35010KT P6SM OVC050
      TEMPO 2808/2810 2SM TSRA BKN025CB
     FM281500 02006KT P6SM SCT250=



000
FTUS44 KTSA 280500
TAFFSM
TAF
KFSM 280520Z 2806/2906 12003KT P6SM BKN100 OVC250
     FM280900 35010KT P6SM OVC050
      TEMPO 2809/2813 4SM TSRA BKN020CB
     FM281800 03006KT P6SM SCT250=



000
FTUS44 KTSA 280500
TAFXNA
TAF
KXNA 280520Z 2806/2906 19008KT P6SM BKN050 OVC100
     FM280700 35010KT P6SM OVC050
      TEMPO 2807/2811 4SM TSRA BKN020CB
     FM281500 02006KT P6SM SCT250=



000
FTUS44 KTSA 280500
TAFFYV
TAF
KFYV 280520Z 2806/2906 18006KT P6SM BKN050 OVC100
     FM280800 35010KT P6SM OVC050
      TEMPO 2809/2813 4SM TSRA BKN020CB
     FM281500 02006KT P6SM SCT250=



000
FTUS44 KTSA 280500
TAFMLC
TAF
KMLC 280520Z 2806/2906 18011KT P6SM BKN120 BKN250
     FM280700 VRB06KT P6SM VCTS BKN050CB OVC100
     FM281200 02011KT P6SM BKN050
     FM281800 01006KT P6SM SCT250=



000
FTUS44 KTSA 280500
TAFTUL
TAF
KTUL 280520Z 2806/2906 34006KT P6SM VCTS BKN050CB OVC100
      TEMPO 2806/2808 4SM TSRA BKN040CB
     FM280800 36011KT P6SM BKN050 OVC100
     FM281200 02007KT P6SM SCT250=



000
FTUS44 KTSA 280500
TAFRVS
TAF
KRVS 280520Z 2806/2906 36006KT P6SM VCTS BKN050CB OVC100
      TEMPO 2806/2808 4SM TSRA BKN040CB
     FM280800 01009KT P6SM BKN050 OVC100
     FM281200 03007KT P6SM SCT250=



000
FTUS44 KTSA 272300
TAFMLC
TAF
KMLC 272320Z 2800/2824 18009KT P6SM BKN120 BKN250
     FM280400 VRB06KT P6SM VCTS BKN050CB BKN100
     FM281200 02010KT P6SM BKN070=



000
FTUS44 KTSA 272300
TAFTUL
TAF
KTUL 272320Z 2800/2824 20010KT P6SM VCTS SCT050CB BKN100 BKN250
     FM280600 36010KT P6SM BKN050 OVC100
     FM281000 01011KT P6SM BKN070=



000
FTUS44 KTSA 272300
TAFRVS
TAF
KRVS 272320Z 2800/2824 20007KT P6SM VCTS SCT050CB BKN100 BKN250
     FM280600 30005KT P6SM BKN050 OVC100
     FM281000 01009KT P6SM BKN050=



000
FTUS44 KTSA 272300
TAFXNA
TAF
KXNA 272320Z 2800/2824 19010KT P6SM BKN120 BKN250
     FM280800 35010KT P6SM BKN050
      TEMPO 2808/2812 4SM TSRA BKN040CB
     FM281500 01008KT P6SM SCT050=



000
FTUS44 KTSA 272300
TAFFYV
TAF
KFYV 272320Z 2800/2824 19010KT P6SM BKN120 BKN250
     FM280700 35010KT P6SM BKN050
      TEMPO 2808/2812 4SM TSRA BKN040CB
     FM281500 01008KT P6SM SCT050=



000
FTUS44 KTSA 272300
TAFFSM
TAF
KFSM 272320Z 2800/2824 16007KT P6SM BKN120 BKN250
     FM280900 35010KT P6SM BKN050
      TEMPO 2809/2813 4SM TSRA BKN040CB
     FM281500 03008KT P6SM BKN050=



    US Dept of Commerce
    National Oceanic and Atmospheric Administration
    National Weather Service
    1325 East West Highway
    Silver Spring, MD 20910
    Page Author: NWS Internet Services Team
Disclaimer
Information Quality
Credits
Glossary
Privacy Policy
Freedom of Information Act (FOIA)
About Us
Career Opportunities